createdAt,value
2022-10-24T00:01:41.724Z,16.00
2022-10-24T00:04:10.005Z,16.10
2022-10-24T00:06:38.216Z,16.20
2022-10-24T00:09:06.479Z,16.20
2022-10-24T00:11:36.341Z,16.20
2022-10-24T00:14:04.789Z,16.30
2022-10-24T00:16:33.304Z,16.30
2022-10-24T00:19:01.543Z,16.30
2022-10-24T00:21:29.852Z,16.30
2022-10-24T00:23:58.057Z,16.30
2022-10-24T00:26:26.261Z,16.40
2022-10-24T00:28:55.914Z,16.40
2022-10-24T00:31:24.275Z,16.50
2022-10-24T00:33:52.488Z,16.50
2022-10-24T00:36:23.881Z,16.50
2022-10-24T00:38:53.029Z,16.40
2022-10-24T00:41:28.885Z,16.40
2022-10-24T00:44:20.699Z,16.30
2022-10-24T00:46:54.540Z,16.30
2022-10-24T00:49:27.271Z,16.40
2022-10-24T00:52:02.513Z,16.50
2022-10-24T00:54:31.187Z,16.70
2022-10-24T00:57:06.261Z,16.80
2022-10-24T00:59:37.653Z,16.90
2022-10-24T01:02:05.963Z,17.00
2022-10-24T01:04:34.582Z,17.00
2022-10-24T01:07:16.686Z,17.10
2022-10-24T01:10:05.272Z,17.20
2022-10-24T01:12:43.722Z,17.30
2022-10-24T01:15:21.172Z,17.20
2022-10-24T01:18:01.132Z,17.10
2022-10-24T01:21:04.699Z,17.10
2022-10-24T01:24:07.019Z,17.10
2022-10-24T01:27:31.466Z,17.10
2022-10-24T01:30:18.363Z,17.10
2022-10-24T01:32:55.123Z,17.00
2022-10-24T01:35:36.068Z,17.00
2022-10-24T01:38:14.273Z,16.90
2022-10-24T01:40:51.707Z,16.90
2022-10-24T01:43:24.516Z,16.80
2022-10-24T01:46:00.595Z,16.80
2022-10-24T01:48:33.566Z,16.70
2022-10-24T01:51:03.632Z,16.70
2022-10-24T01:53:32.656Z,16.70
2022-10-24T01:56:02.148Z,16.70
2022-10-24T01:58:30.399Z,16.70
2022-10-24T02:01:06.660Z,16.70
2022-10-24T02:03:40.259Z,16.70
2022-10-24T02:06:13.164Z,16.70
2022-10-24T02:08:47.828Z,16.70
2022-10-24T02:11:16.047Z,16.70
2022-10-24T02:13:51.698Z,16.70
2022-10-24T02:16:22.439Z,16.60
2022-10-24T02:18:54.732Z,16.60
2022-10-24T02:21:33.504Z,16.50
2022-10-24T02:24:07.535Z,16.50
2022-10-24T02:26:41.207Z,16.50
2022-10-24T02:29:15.169Z,16.40
2022-10-24T02:31:50.261Z,16.40
2022-10-24T02:34:20.607Z,16.40
2022-10-24T02:36:51.357Z,16.40
2022-10-24T02:39:20.980Z,16.40
2022-10-24T02:41:51.210Z,16.40
2022-10-24T02:44:20.610Z,16.30
2022-10-24T02:46:54.291Z,16.30
2022-10-24T02:49:22.806Z,16.30
2022-10-24T02:51:52.179Z,16.30
2022-10-24T02:54:20.818Z,16.30
2022-10-24T02:56:54.075Z,16.30
2022-10-24T02:59:22.341Z,16.20
2022-10-24T03:01:52.044Z,16.20
2022-10-24T03:04:20.377Z,16.20
2022-10-24T03:06:48.961Z,16.10
2022-10-24T03:09:17.236Z,16.10
2022-10-24T03:11:45.653Z,16.00
2022-10-24T03:14:13.904Z,16.00
2022-10-24T03:16:42.133Z,16.20
2022-10-24T03:19:11.681Z,16.20
2022-10-24T03:21:40.206Z,16.20
2022-10-24T03:24:08.951Z,16.20
2022-10-24T03:26:37.296Z,16.20
2022-10-24T03:29:05.795Z,16.30
2022-10-24T03:31:34.314Z,16.20
2022-10-24T03:34:02.571Z,16.20
2022-10-24T03:36:32.155Z,16.20
2022-10-24T03:39:00.376Z,16.20
2022-10-24T03:41:28.622Z,16.10
2022-10-24T03:43:56.792Z,16.20
2022-10-24T03:46:25.124Z,16.20
2022-10-24T03:48:53.758Z,16.30
2022-10-24T03:51:21.969Z,16.40
2022-10-24T03:53:51.577Z,16.50
2022-10-24T03:56:20.003Z,16.50
2022-10-24T03:58:48.359Z,16.50
2022-10-24T04:01:18.651Z,16.50
2022-10-24T04:03:47.404Z,16.50
2022-10-24T04:06:16.018Z,16.40
2022-10-24T04:08:44.241Z,16.40
2022-10-24T04:11:13.926Z,16.40
2022-10-24T04:13:42.172Z,16.40
2022-10-24T04:16:10.853Z,16.30
2022-10-24T04:18:39.128Z,16.30
2022-10-24T04:21:07.912Z,16.30
2022-10-24T04:23:40.966Z,16.30
2022-10-24T04:26:09.454Z,16.40
2022-10-24T04:28:39.171Z,16.30
2022-10-24T04:31:08.239Z,16.30
2022-10-24T04:33:37.427Z,16.40
2022-10-24T04:36:06.881Z,16.40
2022-10-24T04:38:35.096Z,16.40
2022-10-24T04:41:06.207Z,16.40
2022-10-24T04:43:38.201Z,16.30
2022-10-24T04:46:06.640Z,16.40
2022-10-24T04:48:34.996Z,16.40
2022-10-24T04:51:03.297Z,16.30
2022-10-24T04:53:31.527Z,16.40
2022-10-24T04:55:59.878Z,16.30
2022-10-24T04:58:28.256Z,16.30
2022-10-24T05:00:57.887Z,16.30
2022-10-24T05:03:26.144Z,16.20
2022-10-24T05:05:55.508Z,16.20
2022-10-24T05:08:23.765Z,16.10
2022-10-24T05:10:52.071Z,16.00
2022-10-24T05:13:20.383Z,16.20
2022-10-24T05:15:48.734Z,16.20
2022-10-24T05:18:18.388Z,16.20
2022-10-24T05:20:47.655Z,16.10
2022-10-24T05:23:15.902Z,16.10
2022-10-24T05:25:45.974Z,16.10
2022-10-24T05:28:14.197Z,16.10
2022-10-24T05:30:44.447Z,16.10
2022-10-24T05:33:13.337Z,16.00
2022-10-24T05:35:43.522Z,16.10
2022-10-24T05:38:11.860Z,16.00
2022-10-24T05:40:40.118Z,16.00
2022-10-24T05:43:08.431Z,16.10
2022-10-24T05:45:36.763Z,16.10
2022-10-24T05:48:05.799Z,16.10
2022-10-24T05:50:34.925Z,16.10
2022-10-24T05:53:04.968Z,16.00
2022-10-24T05:55:34.512Z,16.00
2022-10-24T05:58:02.892Z,16.00
2022-10-24T06:00:33.896Z,16.00
2022-10-24T06:03:02.125Z,16.00
2022-10-24T06:05:31.591Z,16.00
2022-10-24T06:08:00.735Z,16.00
2022-10-24T06:10:30.392Z,16.00
2022-10-24T06:12:58.783Z,16.00
2022-10-24T06:15:27.213Z,16.00
2022-10-24T06:17:55.546Z,16.00
2022-10-24T06:20:23.847Z,16.10
2022-10-24T06:22:52.102Z,16.10
2022-10-24T06:25:20.369Z,16.10
2022-10-24T06:27:50.035Z,16.10
2022-10-24T06:30:18.851Z,16.10
2022-10-24T06:32:47.461Z,16.10
2022-10-24T06:35:15.981Z,16.20
2022-10-24T06:37:47.334Z,16.10
2022-10-24T06:40:17.169Z,16.00
2022-10-24T06:42:45.554Z,16.10
2022-10-24T06:45:15.345Z,16.10
2022-10-24T06:47:43.997Z,16.10
2022-10-24T06:50:12.595Z,16.00
2022-10-24T06:52:40.838Z,16.10
2022-10-24T06:55:10.626Z,16.10
2022-10-24T06:57:38.903Z,16.20
2022-10-24T07:00:09.878Z,16.10
2022-10-24T07:02:39.351Z,16.10
2022-10-24T07:05:12.690Z,16.10
2022-10-24T07:07:42.670Z,16.10
2022-10-24T07:10:14.358Z,16.10
2022-10-24T07:12:44.452Z,16.10
2022-10-24T07:15:13.886Z,16.10
2022-10-24T07:17:45.512Z,16.10
2022-10-24T07:20:15.664Z,16.10
2022-10-24T07:22:45.639Z,16.20
2022-10-24T07:25:14.272Z,16.20
2022-10-24T07:27:42.697Z,16.20
2022-10-24T07:30:17.441Z,16.20
2022-10-24T07:32:47.448Z,16.30
2022-10-24T07:35:16.028Z,16.30
2022-10-24T07:37:44.537Z,16.30
2022-10-24T07:40:14.407Z,16.30
2022-10-24T07:42:42.826Z,16.30
2022-10-24T07:45:12.744Z,16.40
2022-10-24T07:47:41.046Z,16.40
2022-10-24T07:50:11.075Z,16.50
2022-10-24T07:52:39.457Z,16.50
2022-10-24T07:55:08.488Z,16.50
2022-10-24T07:57:36.782Z,16.50
2022-10-24T08:00:06.755Z,16.50
2022-10-24T08:02:35.112Z,16.50
2022-10-24T08:05:03.413Z,16.50
2022-10-24T08:07:33.139Z,16.50
2022-10-24T08:10:01.585Z,16.50
2022-10-24T08:12:29.834Z,16.50
2022-10-24T08:14:58.223Z,16.60
2022-10-24T08:17:26.439Z,16.70
2022-10-24T08:19:55.264Z,16.80
2022-10-24T08:22:23.536Z,16.90
2022-10-24T08:24:53.384Z,16.90
2022-10-24T08:27:21.647Z,16.90
2022-10-24T08:29:49.911Z,16.90
2022-10-24T08:32:18.156Z,16.90
2022-10-24T08:34:46.408Z,17.00
2022-10-24T08:37:14.637Z,17.00
2022-10-24T08:39:43.037Z,17.00
2022-10-24T08:42:17.023Z,17.10
2022-10-24T08:44:47.336Z,17.20
2022-10-24T08:47:27.015Z,17.20
2022-10-24T08:50:00.932Z,17.30
2022-10-24T08:52:33.701Z,17.40
2022-10-24T08:55:25.148Z,17.40
2022-10-24T08:58:00.527Z,17.40
2022-10-24T09:00:36.454Z,17.40
2022-10-24T09:03:15.701Z,17.40
2022-10-24T09:05:50.263Z,17.40
2022-10-24T09:08:28.735Z,17.30
2022-10-24T09:11:00.452Z,17.30
2022-10-24T09:13:31.597Z,17.30
2022-10-24T09:15:59.900Z,17.30
2022-10-24T09:18:32.863Z,17.30
2022-10-24T09:21:03.505Z,17.40
2022-10-24T09:23:35.314Z,17.40
2022-10-24T09:26:08.412Z,17.50
2022-10-24T09:28:40.225Z,17.50
2022-10-24T09:31:18.361Z,17.50
2022-10-24T09:33:47.930Z,17.50
2022-10-24T09:36:19.012Z,17.70
2022-10-24T09:38:49.081Z,17.80
2022-10-24T09:41:22.222Z,17.90
2022-10-24T09:43:56.021Z,17.90
2022-10-24T09:46:27.901Z,18.10
2022-10-24T09:48:59.083Z,18.10
2022-10-24T09:51:33.788Z,18.10
2022-10-24T09:54:24.559Z,18.10
2022-10-24T09:56:58.737Z,18.10
2022-10-24T09:59:38.455Z,18.00
2022-10-24T10:02:26.488Z,18.00
2022-10-24T10:05:23.695Z,18.00
2022-10-24T10:07:52.981Z,18.00
2022-10-24T10:10:33.459Z,18.00
2022-10-24T10:13:07.052Z,18.00
2022-10-24T10:15:40.804Z,18.10
2022-10-24T10:18:27.389Z,18.20
2022-10-24T10:21:10.363Z,18.20
2022-10-24T10:23:41.474Z,18.20
2022-10-24T10:26:24.867Z,18.10
2022-10-24T10:28:58.464Z,18.10
2022-10-24T10:31:40.519Z,18.10
2022-10-24T10:34:24.997Z,18.10
2022-10-24T10:37:24.816Z,18.10
2022-10-24T10:40:19.486Z,18.10
2022-10-24T10:43:03.480Z,18.10
2022-10-24T10:45:40.489Z,18.10
2022-10-24T10:48:36.077Z,18.10
2022-10-24T10:51:13.271Z,18.00
2022-10-24T10:53:48.990Z,18.00
2022-10-24T10:56:32.801Z,18.00
2022-10-24T10:59:19.242Z,18.00
2022-10-24T11:01:58.151Z,18.00
2022-10-24T11:04:39.685Z,18.00
2022-10-24T11:07:15.003Z,18.00
2022-10-24T11:09:46.885Z,17.90
2022-10-24T11:12:21.997Z,17.90
2022-10-24T11:14:55.907Z,17.90
2022-10-24T11:17:29.477Z,17.80
2022-10-24T11:20:11.651Z,17.90
2022-10-24T11:22:45.357Z,17.80
2022-10-24T11:25:26.587Z,17.80
2022-10-24T11:28:04.825Z,17.80
2022-10-24T11:30:45.272Z,17.80
2022-10-24T11:33:20.158Z,17.80
2022-10-24T11:36:09.942Z,17.80
2022-10-24T11:38:45.276Z,17.90
2022-10-24T11:41:36.904Z,18.10
2022-10-24T11:44:16.410Z,18.20
2022-10-24T11:46:52.406Z,18.30
2022-10-24T11:49:27.307Z,18.30
2022-10-24T11:52:06.295Z,18.30
2022-10-24T11:54:42.822Z,18.30
2022-10-24T11:57:16.754Z,18.20
2022-10-24T11:59:45.029Z,18.30
2022-10-24T12:03:05.625Z,18.20
2022-10-24T12:06:29.049Z,18.20
2022-10-24T12:09:42.796Z,18.20
2022-10-24T12:12:45.465Z,18.20
2022-10-24T12:15:32.261Z,18.20
2022-10-24T12:18:09.534Z,18.20
2022-10-24T12:20:39.314Z,18.20
2022-10-24T12:23:08.459Z,18.10
2022-10-24T12:25:39.328Z,18.10
2022-10-24T12:28:19.960Z,18.00
2022-10-24T12:31:13.034Z,17.90
2022-10-24T12:33:41.491Z,17.70
2022-10-24T12:36:10.528Z,17.60
2022-10-24T12:39:09.934Z,17.40
2022-10-24T12:41:52.083Z,17.40
2022-10-24T12:44:45.789Z,17.40
2022-10-24T12:47:41.506Z,17.30
2022-10-24T12:51:01.752Z,17.30
2022-10-24T12:54:02.194Z,17.30
2022-10-24T12:56:32.865Z,17.30
2022-10-24T12:59:21.478Z,17.30
2022-10-24T13:01:51.771Z,17.30
2022-10-24T13:04:55.729Z,17.40
2022-10-24T13:07:51.960Z,17.20
2022-10-24T13:10:45.242Z,17.00
2022-10-24T13:13:52.624Z,17.00
2022-10-24T13:16:40.830Z,16.90
2022-10-24T13:19:18.558Z,16.90
2022-10-24T13:21:50.618Z,16.80
2022-10-24T13:24:34.048Z,16.80
2022-10-24T13:27:27.995Z,16.70
2022-10-24T13:30:32.925Z,16.60
2022-10-24T13:33:45.672Z,16.50
2022-10-24T13:36:27.790Z,16.30
2022-10-24T13:38:59.329Z,16.20
2022-10-24T13:41:33.921Z,16.10
2022-10-24T13:44:06.895Z,16.10
2022-10-24T13:46:43.442Z,15.90
2022-10-24T13:49:23.024Z,15.90
2022-10-24T13:51:55.886Z,15.80
2022-10-24T13:54:29.665Z,15.70
2022-10-24T13:56:59.866Z,15.50
2022-10-24T13:59:33.600Z,15.40
2022-10-24T14:02:06.816Z,15.30
2022-10-24T14:04:36.971Z,15.20
2022-10-24T14:07:08.569Z,15.20
2022-10-24T14:09:42.580Z,15.20
2022-10-24T14:12:20.584Z,15.20
2022-10-24T14:14:52.151Z,15.20
2022-10-24T14:17:26.088Z,15.20
2022-10-24T14:19:59.213Z,15.20
2022-10-24T14:22:31.422Z,15.20
2022-10-24T14:24:59.656Z,15.20
2022-10-24T14:27:28.542Z,15.10
2022-10-24T14:30:03.702Z,15.10
2022-10-24T14:32:32.965Z,15.10
2022-10-24T14:35:03.468Z,15.00
2022-10-24T14:37:37.114Z,15.10
2022-10-24T14:40:07.223Z,15.10
2022-10-24T14:42:36.058Z,15.10
2022-10-24T14:45:04.868Z,15.10
2022-10-24T14:47:38.978Z,15.10
2022-10-24T14:50:38.058Z,15.20
2022-10-24T14:53:07.096Z,15.20
2022-10-24T14:55:35.464Z,15.20
2022-10-24T14:58:03.701Z,15.20
2022-10-24T15:00:41.015Z,15.20
2022-10-24T15:03:11.874Z,15.20
2022-10-24T15:05:43.071Z,15.20
2022-10-24T15:08:35.483Z,15.30
2022-10-24T15:11:17.373Z,15.40
2022-10-24T15:14:00.003Z,15.40
2022-10-24T15:16:38.646Z,15.50
2022-10-24T15:19:14.721Z,15.40
2022-10-24T15:21:46.668Z,15.40
2022-10-24T15:24:24.925Z,15.40
2022-10-24T15:26:53.989Z,15.40
2022-10-24T15:29:24.620Z,15.30
2022-10-24T15:31:53.526Z,15.30
2022-10-24T15:34:25.845Z,15.20
2022-10-24T15:36:56.966Z,15.20
2022-10-24T15:39:26.194Z,15.10
2022-10-24T15:41:55.270Z,15.10
2022-10-24T15:44:28.302Z,15.10
2022-10-24T15:46:56.886Z,15.00
2022-10-24T15:49:25.329Z,15.00
2022-10-24T15:51:55.351Z,15.00
2022-10-24T15:54:27.040Z,15.00
2022-10-24T15:56:55.529Z,15.00
2022-10-24T15:59:26.768Z,14.90
2022-10-24T16:01:58.179Z,14.90
2022-10-24T16:04:26.549Z,14.90
2022-10-24T16:06:56.361Z,14.80
2022-10-24T16:09:27.930Z,14.80
2022-10-24T16:11:56.663Z,14.80
2022-10-24T16:14:26.859Z,14.70
2022-10-24T16:16:55.912Z,14.70
2022-10-24T16:19:26.511Z,14.80
2022-10-24T16:21:58.751Z,14.70
2022-10-24T16:24:27.471Z,14.70
2022-10-24T16:26:55.947Z,14.70
2022-10-24T16:29:24.199Z,14.60
2022-10-24T16:31:52.536Z,14.60
2022-10-24T16:34:20.811Z,14.60
2022-10-24T16:36:49.106Z,14.50
2022-10-24T16:39:18.780Z,14.60
2022-10-24T16:41:47.100Z,14.50
2022-10-24T16:44:15.436Z,14.50
2022-10-24T16:46:43.822Z,14.50
2022-10-24T16:49:12.045Z,14.50
2022-10-24T16:51:43.182Z,14.50
2022-10-24T16:54:12.324Z,14.40
2022-10-24T16:56:41.909Z,14.40
2022-10-24T16:59:13.091Z,14.40
2022-10-24T17:01:44.183Z,14.30
2022-10-24T17:04:12.495Z,14.40
2022-10-24T17:06:42.132Z,14.30
2022-10-24T17:09:10.431Z,14.40
2022-10-24T17:11:46.446Z,14.40
2022-10-24T17:14:16.492Z,14.30
2022-10-24T17:16:45.245Z,14.30
2022-10-24T17:19:17.496Z,14.30
2022-10-24T17:21:49.363Z,14.30
2022-10-24T17:24:19.944Z,14.30
2022-10-24T17:26:49.042Z,14.20
2022-10-24T17:29:27.460Z,14.20
2022-10-24T17:31:56.521Z,14.20
2022-10-24T17:34:25.860Z,14.20
2022-10-24T17:37:02.380Z,14.10
2022-10-24T17:39:34.590Z,14.00
2022-10-24T17:42:03.123Z,14.00
2022-10-24T17:44:33.613Z,14.00
2022-10-24T17:47:02.399Z,13.90
2022-10-24T17:49:30.701Z,13.80
2022-10-24T17:51:58.979Z,13.80
2022-10-24T17:54:27.665Z,13.80
2022-10-24T17:56:56.037Z,13.80
2022-10-24T17:59:24.328Z,13.80
2022-10-24T18:01:54.244Z,13.70
2022-10-24T18:04:22.897Z,13.70
2022-10-24T18:06:51.253Z,13.70
2022-10-24T18:09:19.583Z,13.70
2022-10-24T18:11:50.495Z,13.70
2022-10-24T18:14:18.804Z,13.70
2022-10-24T18:16:47.008Z,13.70
2022-10-24T18:19:16.756Z,13.70
2022-10-24T18:21:45.207Z,13.70
2022-10-24T18:24:13.820Z,13.70
2022-10-24T18:26:42.114Z,13.70
2022-10-24T18:29:11.929Z,13.70
2022-10-24T18:31:40.158Z,13.70
2022-10-24T18:34:08.846Z,13.70
2022-10-24T18:36:38.675Z,13.70
2022-10-24T18:39:07.506Z,13.70
2022-10-24T18:41:44.143Z,13.70
2022-10-24T18:44:25.710Z,13.70
2022-10-24T18:46:56.153Z,13.70
2022-10-24T18:49:25.043Z,13.70
2022-10-24T18:52:19.214Z,13.70
2022-10-24T18:54:59.072Z,13.70
2022-10-24T18:57:31.013Z,13.70
2022-10-24T19:00:00.226Z,13.80
2022-10-24T19:02:37.327Z,13.80
2022-10-24T19:05:23.691Z,13.80
2022-10-24T19:07:54.006Z,13.90
2022-10-24T19:10:25.643Z,13.90
2022-10-24T19:12:55.383Z,13.90
2022-10-24T19:15:24.763Z,13.90
2022-10-24T19:17:53.309Z,13.90
2022-10-24T19:20:24.574Z,14.00
2022-10-24T19:22:54.243Z,14.00
2022-10-24T19:25:22.494Z,14.10
2022-10-24T19:30:24.472Z,14.30
2022-10-24T19:32:52.736Z,14.30
2022-10-24T19:35:20.984Z,14.30
2022-10-24T19:37:49.558Z,14.20
2022-10-24T19:40:19.347Z,14.10
2022-10-24T19:42:47.587Z,13.90
2022-10-24T19:45:15.927Z,13.80
2022-10-24T19:47:44.368Z,13.70
2022-10-24T19:50:12.920Z,13.60
2022-10-24T19:52:41.572Z,13.30
2022-10-24T19:55:09.888Z,13.20
2022-10-24T19:57:39.548Z,13.20
2022-10-24T20:00:09.820Z,13.20
2022-10-24T20:02:38.100Z,13.10
2022-10-24T20:05:07.834Z,13.10
2022-10-24T20:07:36.150Z,13.00
2022-10-24T20:10:04.808Z,12.90
2022-10-24T20:12:33.047Z,12.80
2022-10-24T20:15:02.645Z,12.80
2022-10-24T20:17:30.976Z,12.80
2022-10-24T20:19:59.283Z,12.80
2022-10-24T20:22:27.580Z,12.80
2022-10-24T20:24:55.908Z,12.70
2022-10-24T20:27:24.817Z,12.80
2022-10-24T20:29:53.344Z,12.80
2022-10-24T20:32:22.975Z,12.70
2022-10-24T20:34:51.816Z,12.70
2022-10-24T20:37:20.054Z,12.70
2022-10-24T20:39:48.551Z,12.70
2022-10-24T20:42:17.858Z,12.70
2022-10-24T20:44:46.157Z,12.70
2022-10-24T20:47:14.438Z,12.70
2022-10-24T20:49:44.049Z,12.80
2022-10-24T20:54:45.445Z,12.70
2022-10-24T20:57:13.725Z,12.80
2022-10-24T20:59:42.013Z,12.80
2022-10-24T21:02:10.869Z,12.80
2022-10-24T21:04:39.212Z,12.80
2022-10-24T21:07:08.912Z,12.80
2022-10-24T21:09:37.158Z,12.80
2022-10-24T21:12:06.074Z,12.80
2022-10-24T21:14:34.321Z,12.80
2022-10-24T21:17:02.631Z,12.80
2022-10-24T21:19:30.908Z,12.80
2022-10-24T21:21:59.199Z,12.80
2022-10-24T21:24:28.846Z,12.80
2022-10-24T21:26:57.252Z,12.80
2022-10-24T21:29:33.167Z,12.70
2022-10-24T21:32:02.336Z,12.70
2022-10-24T21:34:34.156Z,12.70
2022-10-24T21:37:04.475Z,12.70
2022-10-24T21:39:34.162Z,12.70
2022-10-24T21:42:02.415Z,12.70
2022-10-24T21:44:30.768Z,12.70
2022-10-24T21:46:59.038Z,12.70
2022-10-24T21:49:27.383Z,12.70
2022-10-24T21:51:55.623Z,12.70
2022-10-24T21:54:26.224Z,12.80
2022-10-24T21:56:55.958Z,12.70
2022-10-24T21:59:24.614Z,12.70
2022-10-24T22:01:53.465Z,12.70
2022-10-24T22:04:22.244Z,12.70
2022-10-24T22:06:50.941Z,12.70
2022-10-24T22:09:23.686Z,12.70
2022-10-24T22:11:51.947Z,12.70
2022-10-24T22:14:21.643Z,12.70
2022-10-24T22:16:49.868Z,12.80
2022-10-24T22:19:18.430Z,12.80
2022-10-24T22:21:49.138Z,12.80
2022-10-24T22:24:20.223Z,12.80
2022-10-24T22:26:48.738Z,12.80
2022-10-24T22:29:19.698Z,12.90
2022-10-24T22:31:50.565Z,12.90
2022-10-24T22:34:22.763Z,12.90
2022-10-24T22:37:06.350Z,12.90
2022-10-24T22:39:35.601Z,12.90
2022-10-24T22:42:06.163Z,12.90
2022-10-24T22:44:35.466Z,13.00
2022-10-24T22:47:32.132Z,13.00
2022-10-24T22:50:13.875Z,13.00
2022-10-24T22:52:43.065Z,13.00
2022-10-24T22:55:19.904Z,13.10
2022-10-24T22:57:49.086Z,13.10
2022-10-24T23:00:19.421Z,13.10
2022-10-24T23:02:52.931Z,13.10
2022-10-24T23:05:31.059Z,13.10
2022-10-24T23:08:06.415Z,13.10
2022-10-24T23:10:36.512Z,13.10
2022-10-24T23:13:05.613Z,13.20
2022-10-24T23:15:34.406Z,13.20
2022-10-24T23:18:05.108Z,13.20
2022-10-24T23:20:38.273Z,13.30
2022-10-24T23:23:16.956Z,13.30
2022-10-24T23:25:59.628Z,13.30
2022-10-24T23:28:37.350Z,13.30
2022-10-24T23:31:06.511Z,13.30
2022-10-24T23:33:37.112Z,13.30
2022-10-24T23:36:06.604Z,13.40
2022-10-24T23:38:35.914Z,13.40
2022-10-24T23:41:04.991Z,13.50
2022-10-24T23:43:34.077Z,13.50
2022-10-24T23:46:08.290Z,13.50
2022-10-24T23:48:50.051Z,13.40
2022-10-24T23:51:22.863Z,13.40
2022-10-24T23:53:54.074Z,13.50
2022-10-24T23:56:25.629Z,13.60
2022-10-24T23:58:54.752Z,13.60
